Airfield :







YOU CAN JOIN US ON...

 
LOGIN :

Register | Disclaimer

   EN    FR    IT 

 









Legend :    VFR   Marginal VFR   IFR   Intensive IFR   Very Intensive IFR
Visi :
Ceiling :
>= 8 km
>= 3000ft
5 to 8 km
1000 to 3000 ft
1500m to 5 km
500 to 1000 ft
800 to 1500m
200 to 500 ft
< 800m
< 200 ft
Symbols :   Thunderstorms  Fog  Heavy snow  Heavy precipitations  Wind > 20 kt






- Airport Elevation : 1663 ft
- IATA code : SLK


KSLK - Adirondack Regional

CURRENT METAR :
  • 221151Z AUTO VRB06KT 10SM OVC008 08/08 A2972 RMK AO2 RAB01E12 CIG 006V011 SLP069 P0000 60026 70054 T00830078 10128 20083 53029

EXPIRED METARs :
  • 221051Z AUTO 26004KT 10SM FEW005 BKN008 OVC022 12/12 A2966 RMK AO2 RAB27E45 CIG 007V012 SLP043 P0001 T01220117
  • 221037Z AUTO 23008KT 10SM -RA FEW008 BKN013 OVC035 12/12 A2965 RMK AO2 RAB27 P0001 T01220117
  • 221028Z AUTO 23008KT 7SM -RA FEW010 BKN019 OVC035 12/12 A2965 RMK AO2 RAB27 P0000 T01220117
  • 221020Z AUTO 23007KT 10SM SCT008 BKN014 OVC055 12/12 A2965 RMK AO2 T01220117
  • 221000Z AUTO 23006KT 10SM BKN010 BKN017 OVC060 12/12 A2964 RMK AO2 T01170117
  • 220951Z AUTO 22007KT 10SM SCT010 BKN018 OVC060 12/12 A2964 RMK AO2 RAE43 SLP038 P0006 T01220117

TAF KSLK
Valid from the 22 at 12:00 until the 23 at 12:00 UTC


221135Z 2212/2312 28011KT P6SM OVC005
FM221800 27010KT P6SM OVC015
FM222200 27006KT P6SM OVC022
FM230600 00000KT P6SM OVC035
KZBW FIR / North America



MET'MAP, your aeronautical weather chart ! - Copyright ORBIFLY December 2007 - Disclaimer

ORBIFLY MET'MAP TEAM :

Programming & Development : Alexandra Zaïnal
Concept & original design : Baudouin d'Aumeries
Assistance for programming : Marc-Olivier Méhu
Technical & hardware support : Manuel Goepfert

Contact : metmap@orbifly.com




SOURCES & CREDITS :

   NOAA